sensor_id;sensor_type;location;lat;lon;timestamp;temperature;humidity
53498;DHT22;39382;47.168;16.008;2022-10-16T00:00:14;10.80;99.90
53498;DHT22;39382;47.168;16.008;2022-10-16T00:02:40;10.80;99.90
53498;DHT22;39382;47.168;16.008;2022-10-16T00:05:05;10.90;99.90
53498;DHT22;39382;47.168;16.008;2022-10-16T00:07:31;10.80;99.90
53498;DHT22;39382;47.168;16.008;2022-10-16T00:09:56;10.80;99.90
53498;DHT22;39382;47.168;16.008;2022-10-16T00:12:21;10.90;99.90
53498;DHT22;39382;47.168;16.008;2022-10-16T00:14:47;10.80;99.90
53498;DHT22;39382;47.168;16.008;2022-10-16T00:17:12;10.90;99.90
53498;DHT22;39382;47.168;16.008;2022-10-16T00:19:38;10.80;99.90
53498;DHT22;39382;47.168;16.008;2022-10-16T00:22:03;10.80;99.90
53498;DHT22;39382;47.168;16.008;2022-10-16T00:24:29;10.80;99.90
53498;DHT22;39382;47.168;16.008;2022-10-16T00:26:54;10.80;99.90
53498;DHT22;39382;47.168;16.008;2022-10-16T00:29:20;10.70;99.90
53498;DHT22;39382;47.168;16.008;2022-10-16T00:31:45;10.70;99.90
53498;DHT22;39382;47.168;16.008;2022-10-16T00:34:11;10.70;99.90
53498;DHT22;39382;47.168;16.008;2022-10-16T00:36:36;10.70;99.90
53498;DHT22;39382;47.168;16.008;2022-10-16T00:39:02;10.70;99.90
53498;DHT22;39382;47.168;16.008;2022-10-16T00:41:28;10.70;99.90
53498;DHT22;39382;47.168;16.008;2022-10-16T00:43:55;10.70;99.90
53498;DHT22;39382;47.168;16.008;2022-10-16T00:46:22;10.70;99.90
53498;DHT22;39382;47.168;16.008;2022-10-16T00:51:17;10.70;99.90
53498;DHT22;39382;47.168;16.008;2022-10-16T00:53:45;10.70;99.90
53498;DHT22;39382;47.168;16.008;2022-10-16T00:56:10;10.70;99.90
53498;DHT22;39382;47.168;16.008;2022-10-16T00:58:36;10.70;99.90
53498;DHT22;39382;47.168;16.008;2022-10-16T01:01:01;10.70;99.90
53498;DHT22;39382;47.168;16.008;2022-10-16T01:03:28;10.70;99.90
53498;DHT22;39382;47.168;16.008;2022-10-16T01:05:59;10.60;99.90
53498;DHT22;39382;47.168;16.008;2022-10-16T01:08:33;10.60;99.90
53498;DHT22;39382;47.168;16.008;2022-10-16T01:11:16;10.60;99.90
53498;DHT22;39382;47.168;16.008;2022-10-16T01:13:43;10.60;99.90
53498;DHT22;39382;47.168;16.008;2022-10-16T01:16:16;10.60;99.90
53498;DHT22;39382;47.168;16.008;2022-10-16T01:18:46;10.60;99.90
53498;DHT22;39382;47.168;16.008;2022-10-16T01:21:17;10.60;99.90
53498;DHT22;39382;47.168;16.008;2022-10-16T01:26:14;10.60;99.90
53498;DHT22;39382;47.168;16.008;2022-10-16T01:31:06;10.60;99.90
53498;DHT22;39382;47.168;16.008;2022-10-16T01:33:42;10.60;99.90
53498;DHT22;39382;47.168;16.008;2022-10-16T01:36:21;10.60;99.90
53498;DHT22;39382;47.168;16.008;2022-10-16T01:38:49;10.50;99.90
53498;DHT22;39382;47.168;16.008;2022-10-16T01:41:21;10.50;99.90
53498;DHT22;39382;47.168;16.008;2022-10-16T01:43:56;10.50;99.90
53498;DHT22;39382;47.168;16.008;2022-10-16T01:46:22;10.50;99.90
53498;DHT22;39382;47.168;16.008;2022-10-16T01:48:48;10.40;99.90
53498;DHT22;39382;47.168;16.008;2022-10-16T01:51:15;10.40;99.90
53498;DHT22;39382;47.168;16.008;2022-10-16T01:53:43;10.40;99.90
53498;DHT22;39382;47.168;16.008;2022-10-16T01:56:11;10.40;99.90
53498;DHT22;39382;47.168;16.008;2022-10-16T01:58:38;10.40;99.90
53498;DHT22;39382;47.168;16.008;2022-10-16T02:01:05;10.40;99.90
53498;DHT22;39382;47.168;16.008;2022-10-16T02:03:33;10.40;99.90
53498;DHT22;39382;47.168;16.008;2022-10-16T02:05:59;10.40;99.90
53498;DHT22;39382;47.168;16.008;2022-10-16T02:08:25;10.40;99.90
53498;DHT22;39382;47.168;16.008;2022-10-16T02:10:54;10.40;99.90
53498;DHT22;39382;47.168;16.008;2022-10-16T02:13:22;10.50;99.90
53498;DHT22;39382;47.168;16.008;2022-10-16T02:15:49;10.50;99.90
53498;DHT22;39382;47.168;16.008;2022-10-16T02:18:14;10.50;99.90
53498;DHT22;39382;47.168;16.008;2022-10-16T02:20:43;10.50;99.90
53498;DHT22;39382;47.168;16.008;2022-10-16T02:23:12;10.60;99.90
53498;DHT22;39382;47.168;16.008;2022-10-16T02:25:40;10.50;99.90
53498;DHT22;39382;47.168;16.008;2022-10-16T02:28:08;10.50;99.90
53498;DHT22;39382;47.168;16.008;2022-10-16T02:30:42;10.60;99.90
53498;DHT22;39382;47.168;16.008;2022-10-16T02:33:09;10.50;99.90
53498;DHT22;39382;47.168;16.008;2022-10-16T02:35:35;10.50;99.90
53498;DHT22;39382;47.168;16.008;2022-10-16T02:38:01;10.50;99.90
53498;DHT22;39382;47.168;16.008;2022-10-16T02:40:26;10.50;99.90
53498;DHT22;39382;47.168;16.008;2022-10-16T02:42:53;10.50;99.90
53498;DHT22;39382;47.168;16.008;2022-10-16T02:45:19;10.50;99.90
53498;DHT22;39382;47.168;16.008;2022-10-16T02:47:45;10.40;99.90
53498;DHT22;39382;47.168;16.008;2022-10-16T02:50:10;10.50;99.90
53498;DHT22;39382;47.168;16.008;2022-10-16T02:52:36;10.40;99.90
53498;DHT22;39382;47.168;16.008;2022-10-16T02:55:01;10.30;99.90
53498;DHT22;39382;47.168;16.008;2022-10-16T02:57:27;10.40;99.90
53498;DHT22;39382;47.168;16.008;2022-10-16T02:59:52;10.40;99.90
53498;DHT22;39382;47.168;16.008;2022-10-16T03:02:18;10.40;99.90
53498;DHT22;39382;47.168;16.008;2022-10-16T03:04:44;10.40;99.90
53498;DHT22;39382;47.168;16.008;2022-10-16T03:07:09;10.40;99.90
53498;DHT22;39382;47.168;16.008;2022-10-16T03:09:35;10.40;99.90
53498;DHT22;39382;47.168;16.008;2022-10-16T03:12:00;10.40;99.90
53498;DHT22;39382;47.168;16.008;2022-10-16T03:14:26;10.40;99.90
53498;DHT22;39382;47.168;16.008;2022-10-16T03:16:51;10.50;99.90
53498;DHT22;39382;47.168;16.008;2022-10-16T03:19:17;10.50;99.90
53498;DHT22;39382;47.168;16.008;2022-10-16T03:21:43;10.50;99.90
53498;DHT22;39382;47.168;16.008;2022-10-16T03:24:08;10.50;99.90
53498;DHT22;39382;47.168;16.008;2022-10-16T03:26:34;10.50;99.90
53498;DHT22;39382;47.168;16.008;2022-10-16T03:28:59;10.60;99.90
53498;DHT22;39382;47.168;16.008;2022-10-16T03:31:25;10.60;99.90
53498;DHT22;39382;47.168;16.008;2022-10-16T03:33:50;10.50;99.90
53498;DHT22;39382;47.168;16.008;2022-10-16T03:36:16;10.60;99.90
53498;DHT22;39382;47.168;16.008;2022-10-16T03:38:41;10.60;99.90
53498;DHT22;39382;47.168;16.008;2022-10-16T03:41:07;10.60;99.90
53498;DHT22;39382;47.168;16.008;2022-10-16T03:43:33;10.60;99.90
53498;DHT22;39382;47.168;16.008;2022-10-16T03:45:58;10.60;99.90
53498;DHT22;39382;47.168;16.008;2022-10-16T03:48:24;10.50;99.90
53498;DHT22;39382;47.168;16.008;2022-10-16T03:50:49;10.60;99.90
53498;DHT22;39382;47.168;16.008;2022-10-16T03:53:16;10.60;99.90
53498;DHT22;39382;47.168;16.008;2022-10-16T03:55:42;10.50;99.90
53498;DHT22;39382;47.168;16.008;2022-10-16T03:58:08;10.50;99.90
53498;DHT22;39382;47.168;16.008;2022-10-16T04:00:34;10.50;99.90
53498;DHT22;39382;47.168;16.008;2022-10-16T04:03:00;10.50;99.90
53498;DHT22;39382;47.168;16.008;2022-10-16T04:05:25;10.40;99.90
53498;DHT22;39382;47.168;16.008;2022-10-16T04:07:51;10.40;99.90
53498;DHT22;39382;47.168;16.008;2022-10-16T04:10:16;10.40;99.90
53498;DHT22;39382;47.168;16.008;2022-10-16T04:12:42;10.40;99.90
53498;DHT22;39382;47.168;16.008;2022-10-16T04:15:08;10.40;99.90
53498;DHT22;39382;47.168;16.008;2022-10-16T04:17:33;10.40;99.90
53498;DHT22;39382;47.168;16.008;2022-10-16T04:19:59;10.30;99.90
53498;DHT22;39382;47.168;16.008;2022-10-16T04:22:24;10.40;99.90
53498;DHT22;39382;47.168;16.008;2022-10-16T04:24:50;10.40;99.90
53498;DHT22;39382;47.168;16.008;2022-10-16T04:27:15;10.30;99.90
53498;DHT22;39382;47.168;16.008;2022-10-16T04:29:41;10.30;99.90
53498;DHT22;39382;47.168;16.008;2022-10-16T04:32:07;10.30;99.90
53498;DHT22;39382;47.168;16.008;2022-10-16T04:34:33;10.30;99.90
53498;DHT22;39382;47.168;16.008;2022-10-16T04:36:58;10.20;99.90
53498;DHT22;39382;47.168;16.008;2022-10-16T04:39:24;10.30;99.90
53498;DHT22;39382;47.168;16.008;2022-10-16T04:41:49;10.20;99.90
53498;DHT22;39382;47.168;16.008;2022-10-16T04:44:15;10.20;99.90
53498;DHT22;39382;47.168;16.008;2022-10-16T04:46:40;10.20;99.90
53498;DHT22;39382;47.168;16.008;2022-10-16T04:49:06;10.20;99.90
53498;DHT22;39382;47.168;16.008;2022-10-16T04:51:31;10.20;99.90
53498;DHT22;39382;47.168;16.008;2022-10-16T04:53:57;10.60;99.90
53498;DHT22;39382;47.168;16.008;2022-10-16T04:56:22;10.70;99.90
53498;DHT22;39382;47.168;16.008;2022-10-16T04:58:48;10.60;99.90
53498;DHT22;39382;47.168;16.008;2022-10-16T05:01:13;10.60;99.90
53498;DHT22;39382;47.168;16.008;2022-10-16T05:03:39;10.60;99.90
53498;DHT22;39382;47.168;16.008;2022-10-16T05:06:05;10.50;99.90
53498;DHT22;39382;47.168;16.008;2022-10-16T05:08:30;10.50;99.90
53498;DHT22;39382;47.168;16.008;2022-10-16T05:10:56;10.40;99.90
53498;DHT22;39382;47.168;16.008;2022-10-16T05:13:21;10.40;99.90
53498;DHT22;39382;47.168;16.008;2022-10-16T05:15:48;10.40;99.90
53498;DHT22;39382;47.168;16.008;2022-10-16T05:18:14;10.40;99.90
53498;DHT22;39382;47.168;16.008;2022-10-16T05:20:39;10.40;99.90
53498;DHT22;39382;47.168;16.008;2022-10-16T05:23:05;10.30;99.90
53498;DHT22;39382;47.168;16.008;2022-10-16T05:25:30;10.30;99.90
53498;DHT22;39382;47.168;16.008;2022-10-16T05:27:56;10.40;99.90
53498;DHT22;39382;47.168;16.008;2022-10-16T05:30:21;10.40;99.90
53498;DHT22;39382;47.168;16.008;2022-10-16T05:32:47;10.40;99.90
53498;DHT22;39382;47.168;16.008;2022-10-16T05:35:13;10.40;99.90
53498;DHT22;39382;47.168;16.008;2022-10-16T05:37:39;10.40;99.90
53498;DHT22;39382;47.168;16.008;2022-10-16T05:40:04;10.40;99.90
53498;DHT22;39382;47.168;16.008;2022-10-16T05:42:30;10.40;99.90
53498;DHT22;39382;47.168;16.008;2022-10-16T05:44:56;10.40;99.90
53498;DHT22;39382;47.168;16.008;2022-10-16T05:47:21;10.40;99.90
53498;DHT22;39382;47.168;16.008;2022-10-16T05:49:47;10.40;99.90
53498;DHT22;39382;47.168;16.008;2022-10-16T05:52:12;10.40;99.90
53498;DHT22;39382;47.168;16.008;2022-10-16T05:54:38;10.40;99.90
53498;DHT22;39382;47.168;16.008;2022-10-16T05:57:03;10.40;99.90
53498;DHT22;39382;47.168;16.008;2022-10-16T05:59:31;10.30;99.90
53498;DHT22;39382;47.168;16.008;2022-10-16T06:01:56;10.30;99.90
53498;DHT22;39382;47.168;16.008;2022-10-16T06:04:22;10.30;99.90
53498;DHT22;39382;47.168;16.008;2022-10-16T06:06:47;10.40;99.90
53498;DHT22;39382;47.168;16.008;2022-10-16T06:09:13;10.40;99.90
53498;DHT22;39382;47.168;16.008;2022-10-16T06:11:38;10.40;99.90
53498;DHT22;39382;47.168;16.008;2022-10-16T06:14:04;10.50;99.90
53498;DHT22;39382;47.168;16.008;2022-10-16T06:16:35;10.50;99.90
53498;DHT22;39382;47.168;16.008;2022-10-16T06:19:01;10.50;99.90
53498;DHT22;39382;47.168;16.008;2022-10-16T06:21:27;10.60;99.90
53498;DHT22;39382;47.168;16.008;2022-10-16T06:23:54;10.60;99.90
53498;DHT22;39382;47.168;16.008;2022-10-16T06:26:21;10.50;99.90
53498;DHT22;39382;47.168;16.008;2022-10-16T06:28:47;10.50;99.90
53498;DHT22;39382;47.168;16.008;2022-10-16T06:31:12;10.60;99.90
53498;DHT22;39382;47.168;16.008;2022-10-16T06:33:38;10.50;99.90
53498;DHT22;39382;47.168;16.008;2022-10-16T06:36:14;10.60;99.90
53498;DHT22;39382;47.168;16.008;2022-10-16T06:38:40;11.00;99.90
53498;DHT22;39382;47.168;16.008;2022-10-16T06:41:06;11.40;99.90
53498;DHT22;39382;47.168;16.008;2022-10-16T06:43:33;11.70;99.90
53498;DHT22;39382;47.168;16.008;2022-10-16T06:46:00;12.30;99.90
53498;DHT22;39382;47.168;16.008;2022-10-16T06:48:27;12.60;99.90
53498;DHT22;39382;47.168;16.008;2022-10-16T06:51:00;12.70;99.90
53498;DHT22;39382;47.168;16.008;2022-10-16T06:53:26;12.60;99.90
53498;DHT22;39382;47.168;16.008;2022-10-16T06:55:52;12.30;99.90
53498;DHT22;39382;47.168;16.008;2022-10-16T06:58:17;12.20;99.90
53498;DHT22;39382;47.168;16.008;2022-10-16T07:00:43;12.40;99.90
53498;DHT22;39382;47.168;16.008;2022-10-16T07:03:08;12.30;99.90
53498;DHT22;39382;47.168;16.008;2022-10-16T07:05:37;12.20;99.90
53498;DHT22;39382;47.168;16.008;2022-10-16T07:08:03;12.10;99.90
53498;DHT22;39382;47.168;16.008;2022-10-16T07:10:30;11.90;99.90
53498;DHT22;39382;47.168;16.008;2022-10-16T07:12:56;11.90;99.90
53498;DHT22;39382;47.168;16.008;2022-10-16T07:15:21;11.80;99.90
53498;DHT22;39382;47.168;16.008;2022-10-16T07:17:47;11.80;99.90
53498;DHT22;39382;47.168;16.008;2022-10-16T07:20:12;11.90;99.90
53498;DHT22;39382;47.168;16.008;2022-10-16T07:22:38;11.90;99.90
53498;DHT22;39382;47.168;16.008;2022-10-16T07:25:04;11.90;99.90
53498;DHT22;39382;47.168;16.008;2022-10-16T07:27:29;11.90;99.90
53498;DHT22;39382;47.168;16.008;2022-10-16T07:29:55;12.10;99.90
53498;DHT22;39382;47.168;16.008;2022-10-16T07:32:20;12.10;99.90
53498;DHT22;39382;47.168;16.008;2022-10-16T07:34:46;12.20;99.90
53498;DHT22;39382;47.168;16.008;2022-10-16T07:37:11;12.20;99.90
53498;DHT22;39382;47.168;16.008;2022-10-16T07:39:37;12.30;99.90
53498;DHT22;39382;47.168;16.008;2022-10-16T07:42:02;12.40;99.90
53498;DHT22;39382;47.168;16.008;2022-10-16T07:44:28;12.50;99.90
53498;DHT22;39382;47.168;16.008;2022-10-16T07:46:53;12.60;99.90
53498;DHT22;39382;47.168;16.008;2022-10-16T07:49:19;12.70;99.90
53498;DHT22;39382;47.168;16.008;2022-10-16T07:51:44;12.70;99.90
53498;DHT22;39382;47.168;16.008;2022-10-16T07:54:10;12.80;99.90
53498;DHT22;39382;47.168;16.008;2022-10-16T07:56:35;12.90;99.90
53498;DHT22;39382;47.168;16.008;2022-10-16T07:59:01;13.00;99.90
53498;DHT22;39382;47.168;16.008;2022-10-16T08:01:26;13.10;99.90
53498;DHT22;39382;47.168;16.008;2022-10-16T08:03:52;13.20;99.90
53498;DHT22;39382;47.168;16.008;2022-10-16T08:06:18;13.40;99.90
53498;DHT22;39382;47.168;16.008;2022-10-16T08:08:44;13.50;99.90
53498;DHT22;39382;47.168;16.008;2022-10-16T08:11:10;13.60;99.90
53498;DHT22;39382;47.168;16.008;2022-10-16T08:13:35;13.80;99.90
53498;DHT22;39382;47.168;16.008;2022-10-16T08:16:01;13.90;99.90
53498;DHT22;39382;47.168;16.008;2022-10-16T08:18:27;14.00;99.90
53498;DHT22;39382;47.168;16.008;2022-10-16T08:20:56;14.20;99.90
53498;DHT22;39382;47.168;16.008;2022-10-16T08:23:22;14.20;99.90
53498;DHT22;39382;47.168;16.008;2022-10-16T08:25:48;14.30;99.90
53498;DHT22;39382;47.168;16.008;2022-10-16T08:28:13;14.40;99.90
53498;DHT22;39382;47.168;16.008;2022-10-16T08:30:39;14.50;99.90
53498;DHT22;39382;47.168;16.008;2022-10-16T08:33:05;14.60;99.90
53498;DHT22;39382;47.168;16.008;2022-10-16T08:35:31;14.70;99.90
53498;DHT22;39382;47.168;16.008;2022-10-16T08:37:57;14.90;99.90
53498;DHT22;39382;47.168;16.008;2022-10-16T08:40:24;15.00;99.90
53498;DHT22;39382;47.168;16.008;2022-10-16T08:45:23;15.20;99.90
53498;DHT22;39382;47.168;16.008;2022-10-16T08:47:58;15.40;99.90
53498;DHT22;39382;47.168;16.008;2022-10-16T08:50:26;15.50;99.90
53498;DHT22;39382;47.168;16.008;2022-10-16T08:52:53;15.60;99.90
53498;DHT22;39382;47.168;16.008;2022-10-16T08:55:28;15.60;99.90
53498;DHT22;39382;47.168;16.008;2022-10-16T08:57:54;15.70;99.90
53498;DHT22;39382;47.168;16.008;2022-10-16T09:00:20;15.80;99.90
53498;DHT22;39382;47.168;16.008;2022-10-16T09:02:51;15.90;99.90
53498;DHT22;39382;47.168;16.008;2022-10-16T09:05:23;16.00;99.90
53498;DHT22;39382;47.168;16.008;2022-10-16T09:12:49;16.50;99.90
53498;DHT22;39382;47.168;16.008;2022-10-16T09:22:48;16.90;99.90
53498;DHT22;39382;47.168;16.008;2022-10-16T09:25:18;17.10;99.90
53498;DHT22;39382;47.168;16.008;2022-10-16T09:27:46;17.20;99.90
53498;DHT22;39382;47.168;16.008;2022-10-16T09:32:38;17.40;99.90
53498;DHT22;39382;47.168;16.008;2022-10-16T09:35:04;17.40;99.90
53498;DHT22;39382;47.168;16.008;2022-10-16T09:37:36;17.50;99.90
53498;DHT22;39382;47.168;16.008;2022-10-16T09:40:01;17.60;99.90
53498;DHT22;39382;47.168;16.008;2022-10-16T09:42:30;17.70;99.90
53498;DHT22;39382;47.168;16.008;2022-10-16T09:44:56;17.70;99.90
53498;DHT22;39382;47.168;16.008;2022-10-16T09:47:23;17.80;99.90
53498;DHT22;39382;47.168;16.008;2022-10-16T09:50:03;17.90;99.90
53498;DHT22;39382;47.168;16.008;2022-10-16T09:52:31;18.00;99.90
53498;DHT22;39382;47.168;16.008;2022-10-16T09:55:01;18.10;99.90
53498;DHT22;39382;47.168;16.008;2022-10-16T09:57:27;18.20;99.90
53498;DHT22;39382;47.168;16.008;2022-10-16T09:59:54;18.20;99.90
53498;DHT22;39382;47.168;16.008;2022-10-16T10:02:25;18.30;99.90
53498;DHT22;39382;47.168;16.008;2022-10-16T10:04:53;18.40;99.90
53498;DHT22;39382;47.168;16.008;2022-10-16T10:07:32;18.50;99.90
53498;DHT22;39382;47.168;16.008;2022-10-16T10:09:59;18.60;99.90
53498;DHT22;39382;47.168;16.008;2022-10-16T10:12:30;18.70;99.90
53498;DHT22;39382;47.168;16.008;2022-10-16T10:15:12;18.70;99.90
53498;DHT22;39382;47.168;16.008;2022-10-16T10:17:45;18.80;99.90
53498;DHT22;39382;47.168;16.008;2022-10-16T10:20:15;18.90;99.90
53498;DHT22;39382;47.168;16.008;2022-10-16T10:22:42;19.00;99.90
53498;DHT22;39382;47.168;16.008;2022-10-16T10:30:18;19.20;99.60
53498;DHT22;39382;47.168;16.008;2022-10-16T10:35:15;19.30;99.90
53498;DHT22;39382;47.168;16.008;2022-10-16T10:42:35;19.50;99.90
53498;DHT22;39382;47.168;16.008;2022-10-16T10:55:26;19.60;99.40
53498;DHT22;39382;47.168;16.008;2022-10-16T11:08:08;19.80;99.90
53498;DHT22;39382;47.168;16.008;2022-10-16T11:10:44;19.90;99.90
53498;DHT22;39382;47.168;16.008;2022-10-16T11:13:15;20.00;98.10
53498;DHT22;39382;47.168;16.008;2022-10-16T11:15:44;20.10;97.80
53498;DHT22;39382;47.168;16.008;2022-10-16T11:18:27;20.10;97.60
53498;DHT22;39382;47.168;16.008;2022-10-16T11:20:57;20.10;97.30
53498;DHT22;39382;47.168;16.008;2022-10-16T11:25:51;20.10;98.10
53498;DHT22;39382;47.168;16.008;2022-10-16T11:33:34;20.20;99.90
53498;DHT22;39382;47.168;16.008;2022-10-16T11:38:39;20.40;99.90
53498;DHT22;39382;47.168;16.008;2022-10-16T11:41:13;20.50;99.90
53498;DHT22;39382;47.168;16.008;2022-10-16T11:43:43;20.50;99.90
53498;DHT22;39382;47.168;16.008;2022-10-16T11:46:20;20.50;99.90
53498;DHT22;39382;47.168;16.008;2022-10-16T11:48:57;20.50;99.90
53498;DHT22;39382;47.168;16.008;2022-10-16T11:53:57;20.50;99.90
53498;DHT22;39382;47.168;16.008;2022-10-16T11:56:24;20.60;99.90
53498;DHT22;39382;47.168;16.008;2022-10-16T13:10:06;21.10;91.50
53498;DHT22;39382;47.168;16.008;2022-10-16T13:23:13;20.90;92.00
53498;DHT22;39382;47.168;16.008;2022-10-16T13:25:49;20.90;91.30
53498;DHT22;39382;47.168;16.008;2022-10-16T13:28:19;20.90;91.40
53498;DHT22;39382;47.168;16.008;2022-10-16T13:30:53;20.90;92.00
53498;DHT22;39382;47.168;16.008;2022-10-16T13:33:20;21.00;92.20
53498;DHT22;39382;47.168;16.008;2022-10-16T13:35:54;20.90;91.50
53498;DHT22;39382;47.168;16.008;2022-10-16T13:38:21;20.90;92.00
53498;DHT22;39382;47.168;16.008;2022-10-16T13:40:57;20.90;91.40
53498;DHT22;39382;47.168;16.008;2022-10-16T13:43:40;20.90;91.00
53498;DHT22;39382;47.168;16.008;2022-10-16T13:46:10;20.90;90.70
53498;DHT22;39382;47.168;16.008;2022-10-16T13:48:37;20.90;90.50
53498;DHT22;39382;47.168;16.008;2022-10-16T13:51:04;20.90;90.50
53498;DHT22;39382;47.168;16.008;2022-10-16T13:53:33;20.90;90.40
53498;DHT22;39382;47.168;16.008;2022-10-16T13:55:59;20.90;90.90
53498;DHT22;39382;47.168;16.008;2022-10-16T13:58:25;20.90;90.70
53498;DHT22;39382;47.168;16.008;2022-10-16T14:03:35;20.80;91.10
53498;DHT22;39382;47.168;16.008;2022-10-16T14:06:04;20.70;91.20
53498;DHT22;39382;47.168;16.008;2022-10-16T14:08:32;20.70;91.30
53498;DHT22;39382;47.168;16.008;2022-10-16T14:11:01;20.60;91.00
53498;DHT22;39382;47.168;16.008;2022-10-16T14:13:36;20.60;91.20
53498;DHT22;39382;47.168;16.008;2022-10-16T14:16:25;20.60;91.10
53498;DHT22;39382;47.168;16.008;2022-10-16T14:21:23;20.40;91.60
53498;DHT22;39382;47.168;16.008;2022-10-16T14:23:49;20.40;92.30
53498;DHT22;39382;47.168;16.008;2022-10-16T14:26:16;20.30;92.40
53498;DHT22;39382;47.168;16.008;2022-10-16T14:28:46;20.20;92.70
53498;DHT22;39382;47.168;16.008;2022-10-16T14:33:44;20.10;93.20
53498;DHT22;39382;47.168;16.008;2022-10-16T14:38:35;19.90;93.80
53498;DHT22;39382;47.168;16.008;2022-10-16T14:41:02;19.90;93.70
53498;DHT22;39382;47.168;16.008;2022-10-16T14:43:32;19.80;94.10
53498;DHT22;39382;47.168;16.008;2022-10-16T14:45:58;19.70;94.20
53498;DHT22;39382;47.168;16.008;2022-10-16T14:48:24;19.60;94.40
53498;DHT22;39382;47.168;16.008;2022-10-16T14:50:49;19.50;94.60
53498;DHT22;39382;47.168;16.008;2022-10-16T14:53:15;19.40;95.10
53498;DHT22;39382;47.168;16.008;2022-10-16T14:55:41;19.30;95.30
53498;DHT22;39382;47.168;16.008;2022-10-16T15:00:35;19.10;99.90
53498;DHT22;39382;47.168;16.008;2022-10-16T15:03:01;19.10;99.90
53498;DHT22;39382;47.168;16.008;2022-10-16T15:05:27;18.90;97.20
53498;DHT22;39382;47.168;16.008;2022-10-16T15:07:54;18.80;97.60
53498;DHT22;39382;47.168;16.008;2022-10-16T15:10:20;18.70;98.00
53498;DHT22;39382;47.168;16.008;2022-10-16T15:12:46;18.60;98.40
53498;DHT22;39382;47.168;16.008;2022-10-16T15:17:47;18.50;99.20
53498;DHT22;39382;47.168;16.008;2022-10-16T15:20:13;18.40;99.70
53498;DHT22;39382;47.168;16.008;2022-10-16T15:22:38;18.30;99.90
53498;DHT22;39382;47.168;16.008;2022-10-16T15:25:26;18.20;99.90
53498;DHT22;39382;47.168;16.008;2022-10-16T15:27:52;18.20;99.90
53498;DHT22;39382;47.168;16.008;2022-10-16T15:30:18;18.30;99.90
53498;DHT22;39382;47.168;16.008;2022-10-16T15:32:43;18.20;99.90
53498;DHT22;39382;47.168;16.008;2022-10-16T15:35:09;18.10;99.90
53498;DHT22;39382;47.168;16.008;2022-10-16T15:37:34;18.00;99.90
53498;DHT22;39382;47.168;16.008;2022-10-16T15:40:00;17.90;99.90
53498;DHT22;39382;47.168;16.008;2022-10-16T15:42:25;17.70;99.90
53498;DHT22;39382;47.168;16.008;2022-10-16T15:44:51;17.60;99.90
53498;DHT22;39382;47.168;16.008;2022-10-16T15:47:16;17.40;99.90
53498;DHT22;39382;47.168;16.008;2022-10-16T15:49:42;17.30;99.90
53498;DHT22;39382;47.168;16.008;2022-10-16T15:52:07;17.10;99.90
53498;DHT22;39382;47.168;16.008;2022-10-16T15:54:33;17.00;99.90
53498;DHT22;39382;47.168;16.008;2022-10-16T15:56:58;16.80;99.90
53498;DHT22;39382;47.168;16.008;2022-10-16T15:59:24;16.70;99.90
53498;DHT22;39382;47.168;16.008;2022-10-16T16:01:49;16.60;99.90
53498;DHT22;39382;47.168;16.008;2022-10-16T16:04:15;16.50;99.90
53498;DHT22;39382;47.168;16.008;2022-10-16T16:06:42;16.30;99.90
53498;DHT22;39382;47.168;16.008;2022-10-16T16:09:10;16.20;99.90
53498;DHT22;39382;47.168;16.008;2022-10-16T16:11:36;16.00;99.90
53498;DHT22;39382;47.168;16.008;2022-10-16T16:14:07;15.90;99.90
53498;DHT22;39382;47.168;16.008;2022-10-16T16:16:35;15.80;99.90
53498;DHT22;39382;47.168;16.008;2022-10-16T16:19:06;15.60;99.90
53498;DHT22;39382;47.168;16.008;2022-10-16T16:21:32;15.50;99.90
53498;DHT22;39382;47.168;16.008;2022-10-16T16:23:58;15.40;99.90
53498;DHT22;39382;47.168;16.008;2022-10-16T16:28:53;15.10;99.90
53498;DHT22;39382;47.168;16.008;2022-10-16T16:31:19;15.00;99.90
53498;DHT22;39382;47.168;16.008;2022-10-16T16:33:44;14.90;99.90
53498;DHT22;39382;47.168;16.008;2022-10-16T16:36:11;14.80;99.90
53498;DHT22;39382;47.168;16.008;2022-10-16T16:38:36;14.70;99.90
53498;DHT22;39382;47.168;16.008;2022-10-16T16:41:21;14.60;99.90
53498;DHT22;39382;47.168;16.008;2022-10-16T16:43:46;14.60;99.90
53498;DHT22;39382;47.168;16.008;2022-10-16T16:46:18;14.50;99.90
53498;DHT22;39382;47.168;16.008;2022-10-16T16:48:44;14.40;99.90
53498;DHT22;39382;47.168;16.008;2022-10-16T16:51:11;14.30;99.90
53498;DHT22;39382;47.168;16.008;2022-10-16T16:53:40;14.30;99.90
53498;DHT22;39382;47.168;16.008;2022-10-16T16:56:06;14.20;99.90
53498;DHT22;39382;47.168;16.008;2022-10-16T16:58:32;14.20;99.90
53498;DHT22;39382;47.168;16.008;2022-10-16T17:00:58;14.10;99.90
53498;DHT22;39382;47.168;16.008;2022-10-16T17:03:31;14.10;99.90
53498;DHT22;39382;47.168;16.008;2022-10-16T17:08:22;14.00;99.90
53498;DHT22;39382;47.168;16.008;2022-10-16T17:10:48;13.90;99.90
53498;DHT22;39382;47.168;16.008;2022-10-16T17:13:18;13.90;99.90
53498;DHT22;39382;47.168;16.008;2022-10-16T17:15:47;13.80;99.90
53498;DHT22;39382;47.168;16.008;2022-10-16T17:18:12;13.70;99.90
53498;DHT22;39382;47.168;16.008;2022-10-16T17:20:38;13.70;99.90
53498;DHT22;39382;47.168;16.008;2022-10-16T17:23:03;13.60;99.90
53498;DHT22;39382;47.168;16.008;2022-10-16T17:25:29;13.60;99.90
53498;DHT22;39382;47.168;16.008;2022-10-16T17:27:54;13.50;99.90
53498;DHT22;39382;47.168;16.008;2022-10-16T17:30:20;13.50;99.90
53498;DHT22;39382;47.168;16.008;2022-10-16T17:32:45;13.50;99.90
53498;DHT22;39382;47.168;16.008;2022-10-16T17:35:11;13.50;99.90
53498;DHT22;39382;47.168;16.008;2022-10-16T17:37:36;13.40;99.90
53498;DHT22;39382;47.168;16.008;2022-10-16T17:40:02;13.40;99.90
53498;DHT22;39382;47.168;16.008;2022-10-16T17:42:28;13.30;99.90
53498;DHT22;39382;47.168;16.008;2022-10-16T17:44:53;13.30;99.90
53498;DHT22;39382;47.168;16.008;2022-10-16T17:47:18;13.20;99.90
53498;DHT22;39382;47.168;16.008;2022-10-16T17:49:44;13.30;99.90
53498;DHT22;39382;47.168;16.008;2022-10-16T17:52:09;13.10;99.90
53498;DHT22;39382;47.168;16.008;2022-10-16T17:54:35;13.10;99.90
53498;DHT22;39382;47.168;16.008;2022-10-16T17:57:00;13.10;99.90
53498;DHT22;39382;47.168;16.008;2022-10-16T17:59:26;13.00;99.90
53498;DHT22;39382;47.168;16.008;2022-10-16T18:01:52;13.00;99.90
53498;DHT22;39382;47.168;16.008;2022-10-16T18:04:18;12.90;99.90
53498;DHT22;39382;47.168;16.008;2022-10-16T18:06:44;12.90;99.90